Time;durP1;ratioP1;P1;durP2;ratioP2;P2;SDS_P1;SDS_P2;PMS_P1;PMS_P2;Temp;Humidity;BMP_temperature;BMP_pressure;BME280_temperature;BME280_humidity;BME280_pressure;Samples;Min_cycle;Max_cycle;Signal;HPM_P1;HPM_P2
2022/08/15 00:00:20;;;;;;;46.63;44.22;;;;;;;;;;5034569;28;20041;-65
2022/08/15 00:02:47;;;;;;;62.78;59.65;;;;;;;;;;5037991;28;20043;-65
2022/08/15 00:05:17;;;;;;;55.33;52.53;;;;;;;;;;5038951;28;20112;-65
2022/08/15 00:07:43;;;;;;;64.63;61.40;;;;;;;;;;5039501;28;20117;-64
2022/08/15 00:10:10;;;;;;;61.63;58.45;;;;;;;;;;5040794;28;20111;-64
2022/08/15 00:12:38;;;;;;;62.63;59.47;;;;;;;;;;5037656;28;20630;-64
2022/08/15 00:15:11;;;;;;;62.33;59.25;;;;;;;;;;5038542;28;20482;-65
2022/08/15 00:17:38;;;;;;;66.78;63.45;;;;;;;;;;5038960;28;20133;-64
2022/08/15 00:20:05;;;;;;;68.05;64.65;;;;;;;;;;5039549;28;20477;-65
2022/08/15 00:22:31;;;;;;;62.25;59.13;;;;;;;;;;5038984;28;20028;-65
2022/08/15 00:24:57;;;;;;;60.65;57.63;;;;;;;;;;5041707;28;20030;-65
2022/08/15 00:27:24;;;;;;;56.95;54.08;;;;;;;;;;5040670;28;20101;-65
2022/08/15 00:29:51;;;;;;;57.08;54.20;;;;;;;;;;5042441;28;20472;-65
2022/08/15 00:32:23;;;;;;;54.03;51.33;;;;;;;;;;5036522;28;20148;-65
2022/08/15 00:34:49;;;;;;;58.33;55.42;;;;;;;;;;5033868;28;20029;-65
2022/08/15 00:37:16;;;;;;;24.67;23.38;;;;;;;;;;5038224;28;20087;-65
2022/08/15 00:39:41;;;;;;;58.22;55.33;;;;;;;;;;5037432;28;20101;-65
2022/08/15 00:42:09;;;;;;;34.10;32.35;;;;;;;;;;5039921;28;20124;-64
2022/08/15 00:44:44;;;;;;;32.67;30.98;;;;;;;;;;5038043;28;20051;-64
2022/08/15 00:47:20;;;;;;;24.50;23.17;;;;;;;;;;5037054;28;20048;-64
2022/08/15 00:49:47;;;;;;;47.17;44.80;;;;;;;;;;5036566;28;20042;-65
2022/08/15 00:52:15;;;;;;;43.63;41.40;;;;;;;;;;5038224;28;20052;-65
2022/08/15 00:54:55;;;;;;;49.33;46.83;;;;;;;;;;5038666;28;20033;-66
2022/08/15 00:57:20;;;;;;;;;;;;;;;;;;5037844;28;20025;-65
2022/08/15 01:00:04;;;;;;;30.10;28.50;;;;;;;;;;5037381;28;19909;-65
2022/08/15 01:02:33;;;;;;;31.35;29.70;;;;;;;;;;5039157;28;20029;-66
2022/08/15 01:04:59;;;;;;;30.23;28.63;;;;;;;;;;5036295;28;20037;-65
2022/08/15 01:07:26;;;;;;;27.50;26.05;;;;;;;;;;5037810;28;20028;-66
2022/08/15 01:09:52;;;;;;;26.38;24.98;;;;;;;;;;5037600;28;20032;-65
2022/08/15 01:12:24;;;;;;;24.65;23.35;;;;;;;;;;5040474;28;20045;-66
2022/08/15 01:14:57;;;;;;;23.83;22.52;;;;;;;;;;5040252;28;20047;-64
2022/08/15 01:17:26;;;;;;;20.08;18.98;;;;;;;;;;5038016;28;20029;-65
2022/08/15 01:20:01;;;;;;;13.68;12.88;;;;;;;;;;5037627;28;20044;-64
2022/08/15 01:22:28;;;;;;;13.05;12.25;;;;;;;;;;5037167;28;20056;-64
2022/08/15 01:25:04;;;;;;;16.13;15.23;;;;;;;;;;5040488;28;20037;-63
2022/08/15 01:27:35;;;;;;;14.82;13.95;;;;;;;;;;5037600;28;20034;-63
2022/08/15 01:30:06;;;;;;;16.77;15.88;;;;;;;;;;5037636;28;20159;-63
2022/08/15 01:32:32;;;;;;;16.35;15.43;;;;;;;;;;5037771;28;20559;-65
2022/08/15 01:35:00;;;;;;;14.88;13.88;;;;;;;;;;5037288;28;20628;-65
2022/08/15 01:37:26;;;;;;;14.60;13.77;;;;;;;;;;5037739;28;20467;-65
2022/08/15 01:39:57;;;;;;;15.38;14.48;;;;;;;;;;5037718;28;20032;-65
2022/08/15 01:42:31;;;;;;;15.35;14.48;;;;;;;;;;5037078;28;20029;-65
2022/08/15 01:45:14;;;;;;;13.60;12.80;;;;;;;;;;5036707;28;20041;-65
2022/08/15 01:47:58;;;;;;;14.77;13.90;;;;;;;;;;5044630;28;20048;-65
2022/08/15 01:50:31;;;;;;;14.55;13.75;;;;;;;;;;5035347;28;20037;-65
2022/08/15 01:53:12;;;;;;;16.20;15.23;;;;;;;;;;5038911;28;20067;-61
2022/08/15 01:55:49;;;;;;;12.00;11.30;;;;;;;;;;5039133;28;20030;-61
2022/08/15 01:58:15;;;;;;;12.02;11.32;;;;;;;;;;5036859;28;20029;-61
2022/08/15 02:00:54;;;;;;;13.23;12.43;;;;;;;;;;5038354;28;20057;-61
2022/08/15 02:03:20;;;;;;;13.13;12.32;;;;;;;;;;5033971;28;20060;-61
2022/08/15 02:05:45;;;;;;;14.15;13.35;;;;;;;;;;5036214;28;20065;-61
2022/08/15 02:08:10;;;;;;;12.40;11.63;;;;;;;;;;5033178;28;20432;-61
2022/08/15 02:10:36;;;;;;;13.63;12.82;;;;;;;;;;5037128;28;20095;-61
2022/08/15 02:13:02;;;;;;;12.07;11.38;;;;;;;;;;5036210;28;20025;-61
2022/08/15 02:15:28;;;;;;;13.15;12.30;;;;;;;;;;5039492;28;20028;-61
2022/08/15 02:17:53;;;;;;;13.20;12.40;;;;;;;;;;5036111;28;20033;-61
2022/08/15 02:20:18;;;;;;;14.38;13.57;;;;;;;;;;5036060;28;20359;-61
2022/08/15 02:22:44;;;;;;;13.20;12.40;;;;;;;;;;5036354;28;20033;-61
2022/08/15 02:25:11;;;;;;;13.80;13.00;;;;;;;;;;5039231;28;20538;-62
2022/08/15 02:27:38;;;;;;;12.82;12.10;;;;;;;;;;5037358;28;20051;-61
2022/08/15 02:30:11;;;;;;;14.63;13.65;;;;;;;;;;5035703;28;20071;-62
2022/08/15 02:32:38;;;;;;;11.32;10.63;;;;;;;;;;5045007;28;20025;-61
2022/08/15 02:35:05;;;;;;;13.40;12.60;;;;;;;;;;5037891;28;20047;-61
2022/08/15 02:37:31;;;;;;;13.63;12.73;;;;;;;;;;5037429;28;20512;-61
2022/08/15 02:39:56;;;;;;;14.70;13.85;;;;;;;;;;5038382;28;20037;-61
2022/08/15 02:42:22;;;;;;;14.63;13.75;;;;;;;;;;5035881;28;20120;-62
2022/08/15 02:44:50;;;;;;;12.27;11.50;;;;;;;;;;5036422;28;20072;-61
2022/08/15 02:47:17;;;;;;;11.20;10.50;;;;;;;;;;5035317;28;20045;-62
2022/08/15 02:49:43;;;;;;;11.93;11.23;;;;;;;;;;5036808;28;20398;-61
2022/08/15 02:52:09;;;;;;;13.10;12.30;;;;;;;;;;5039538;28;20029;-61
2022/08/15 02:54:35;;;;;;;11.30;10.60;;;;;;;;;;5032624;28;20044;-61
2022/08/15 02:57:01;;;;;;;11.10;10.40;;;;;;;;;;5034406;28;20052;-61
2022/08/15 02:59:27;;;;;;;11.10;10.25;;;;;;;;;;5035967;28;20117;-61
2022/08/15 03:01:52;;;;;;;10.35;9.75;;;;;;;;;;5034107;28;20088;-61
2022/08/15 03:04:20;;;;;;;12.55;11.75;;;;;;;;;;5035735;28;20029;-62
2022/08/15 03:06:46;;;;;;;12.48;11.68;;;;;;;;;;5036619;28;20514;-62
2022/08/15 03:09:13;;;;;;;12.90;12.10;;;;;;;;;;5037518;28;20049;-62
2022/08/15 03:11:41;;;;;;;15.23;14.25;;;;;;;;;;5036448;28;20037;-62
2022/08/15 03:14:08;;;;;;;13.15;12.35;;;;;;;;;;5034614;28;20355;-61
2022/08/15 03:16:43;;;;;;;14.60;13.70;;;;;;;;;;5035883;28;20044;-61
2022/08/15 03:19:16;;;;;;;13.52;12.73;;;;;;;;;;5032765;28;20022;-61
2022/08/15 03:21:43;;;;;;;13.35;12.55;;;;;;;;;;5035378;28;20455;-61
2022/08/15 03:24:09;;;;;;;11.68;10.98;;;;;;;;;;5036741;28;20126;-61
2022/08/15 03:26:35;;;;;;;12.55;11.75;;;;;;;;;;5037321;28;20052;-61
2022/08/15 03:29:02;;;;;;;13.30;12.50;;;;;;;;;;5035862;28;20037;-61
2022/08/15 03:31:27;;;;;;;19.50;11.55;;;;;;;;;;5036670;28;20730;-61
2022/08/15 03:33:52;;;;;;;13.90;13.10;;;;;;;;;;5039743;28;20041;-61
2022/08/15 03:36:20;;;;;;;12.63;11.88;;;;;;;;;;5040529;28;20103;-61
2022/08/15 03:38:47;;;;;;;12.65;11.85;;;;;;;;;;5039591;28;20455;-61
2022/08/15 03:41:13;;;;;;;12.38;11.57;;;;;;;;;;5040389;28;20037;-61
2022/08/15 03:43:39;;;;;;;11.63;10.93;;;;;;;;;;5038616;28;20044;-61
2022/08/15 03:46:11;;;;;;;12.95;12.18;;;;;;;;;;5038607;28;20424;-61
2022/08/15 03:48:40;;;;;;;14.05;13.13;;;;;;;;;;5040357;28;20477;-61
2022/08/15 03:51:08;;;;;;;13.35;12.55;;;;;;;;;;5037583;28;20805;-60
2022/08/15 03:53:43;;;;;;;12.35;11.65;;;;;;;;;;5039208;28;20026;-61
2022/08/15 03:56:10;;;;;;;14.02;13.23;;;;;;;;;;5035987;28;20040;-60
2022/08/15 03:58:37;;;;;;;13.23;12.43;;;;;;;;;;5040326;28;20056;-61
2022/08/15 04:01:13;;;;;;;14.35;13.23;;;;;;;;;;5040980;28;20474;-60
2022/08/15 04:03:38;;;;;;;12.38;11.63;;;;;;;;;;5038356;28;20044;-60
2022/08/15 04:06:06;;;;;;;14.93;12.77;;;;;;;;;;5036955;28;20091;-61
2022/08/15 04:08:33;;;;;;;14.63;13.82;;;;;;;;;;5039489;28;20052;-60
2022/08/15 04:11:02;;;;;;;15.63;14.73;;;;;;;;;;5038477;28;20041;-60
2022/08/15 04:13:28;;;;;;;12.95;12.18;;;;;;;;;;5040279;28;20038;-60
2022/08/15 04:15:56;;;;;;;13.27;12.48;;;;;;;;;;5037606;28;20041;-60
2022/08/15 04:18:24;;;;;;;13.15;12.35;;;;;;;;;;5035593;28;20049;-60
2022/08/15 04:20:50;;;;;;;12.98;12.18;;;;;;;;;;5036503;28;20029;-61
2022/08/15 04:23:16;;;;;;;13.10;12.30;;;;;;;;;;5037364;28;20055;-61
2022/08/15 04:25:42;;;;;;;12.63;11.93;;;;;;;;;;5039090;28;20088;-61
2022/08/15 04:28:10;;;;;;;14.57;13.73;;;;;;;;;;5037233;28;20060;-61
2022/08/15 04:30:39;;;;;;;12.80;12.00;;;;;;;;;;5039112;28;20485;-61
2022/08/15 04:33:11;;;;;;;12.65;11.93;;;;;;;;;;5038595;28;20060;-61
2022/08/15 04:35:40;;;;;;;13.20;12.40;;;;;;;;;;5038095;28;20113;-62
2022/08/15 04:38:05;;;;;;;13.65;12.85;;;;;;;;;;5036162;28;20104;-61
2022/08/15 04:40:31;;;;;;;14.40;13.60;;;;;;;;;;5037555;28;20092;-61
2022/08/15 04:42:58;;;;;;;14.25;13.45;;;;;;;;;;5039812;28;20048;-61
2022/08/15 04:45:25;;;;;;;15.60;14.70;;;;;;;;;;5039311;28;20021;-61
2022/08/15 04:47:51;;;;;;;12.27;11.57;;;;;;;;;;5038480;28;20128;-61
2022/08/15 04:50:17;;;;;;;13.88;13.00;;;;;;;;;;5039984;28;20048;-62
2022/08/15 04:52:49;;;;;;;14.35;13.40;;;;;;;;;;5036505;28;20033;-61
2022/08/15 04:55:14;;;;;;;13.45;12.65;;;;;;;;;;5037133;28;20493;-61
2022/08/15 04:57:41;;;;;;;13.75;12.95;;;;;;;;;;5036315;28;20047;-60
2022/08/15 05:00:10;;;;;;;13.20;12.40;;;;;;;;;;5036829;28;20041;-60
2022/08/15 05:02:36;;;;;;;12.48;11.77;;;;;;;;;;5037337;28;20269;-60
2022/08/15 05:05:03;;;;;;;12.02;11.32;;;;;;;;;;5034112;28;20082;-61
2022/08/15 05:07:29;;;;;;;13.68;12.88;;;;;;;;;;5035186;28;20101;-61
2022/08/15 05:09:56;;;;;;;12.00;11.07;;;;;;;;;;5037638;28;20422;-61
2022/08/15 05:12:23;;;;;;;12.57;11.88;;;;;;;;;;5036919;28;20462;-61
2022/08/15 05:14:48;;;;;;;12.30;11.60;;;;;;;;;;5035361;28;20047;-62
2022/08/15 05:17:14;;;;;;;13.10;12.32;;;;;;;;;;5034299;28;20029;-61
2022/08/15 05:19:39;;;;;;;10.27;9.68;;;;;;;;;;5035179;28;20221;-62
2022/08/15 05:22:05;;;;;;;13.18;12.38;;;;;;;;;;5034585;28;20041;-63
2022/08/15 05:24:30;;;;;;;12.18;11.23;;;;;;;;;;5035781;28;20025;-62
2022/08/15 05:26:56;;;;;;;11.10;10.43;;;;;;;;;;5037991;28;20067;-62
2022/08/15 05:29:21;;;;;;;11.13;10.43;;;;;;;;;;5037372;28;20021;-62
2022/08/15 05:31:46;;;;;;;12.55;11.85;;;;;;;;;;5032793;28;20036;-62
2022/08/15 05:34:12;;;;;;;13.13;12.32;;;;;;;;;;5034145;28;20040;-62
2022/08/15 05:36:38;;;;;;;12.57;11.88;;;;;;;;;;5037614;28;20463;-61
2022/08/15 05:39:18;;;;;;;13.40;12.60;;;;;;;;;;5038436;28;20025;-62
2022/08/15 05:42:11;;;;;;;15.40;14.50;;;;;;;;;;5035704;28;20383;-62
2022/08/15 05:44:57;;;;;;;15.27;14.38;;;;;;;;;;5033786;28;20033;-62
2022/08/15 05:47:33;;;;;;;18.10;17.00;;;;;;;;;;5033140;28;20031;-62
2022/08/15 05:50:07;;;;;;;18.17;17.15;;;;;;;;;;5034367;28;20633;-62
2022/08/15 05:52:51;;;;;;;18.50;17.50;;;;;;;;;;5037143;28;20375;-62
2022/08/15 05:55:29;;;;;;;20.60;19.33;;;;;;;;;;5034018;28;20482;-63
2022/08/15 05:58:19;;;;;;;20.80;19.60;;;;;;;;;;5038535;28;20403;-62
2022/08/15 06:00:59;;;;;;;25.50;24.13;;;;;;;;;;5036086;28;20037;-63
2022/08/15 06:03:26;;;;;;;;;;;;;;;;;;5037973;28;20032;-63
2022/08/15 06:05:57;;;;;;;21.80;20.40;;;;;;;;;;5036529;28;19925;-63
2022/08/15 06:08:35;;;;;;;24.45;23.15;;;;;;;;;;5038970;28;20048;-63
2022/08/15 06:11:27;;;;;;;23.20;21.92;;;;;;;;;;5038790;28;20045;-65
2022/08/15 06:14:07;;;;;;;22.58;21.35;;;;;;;;;;5036983;28;20057;-64
2022/08/15 06:16:48;;;;;;;24.40;23.10;;;;;;;;;;5031938;28;20037;-64
2022/08/15 06:19:26;;;;;;;24.60;23.20;;;;;;;;;;5032625;28;20033;-64
2022/08/15 06:22:02;;;;;;;28.10;26.58;;;;;;;;;;5033931;28;20025;-65
2022/08/15 06:24:54;;;;;;;28.70;26.98;;;;;;;;;;5035582;28;20450;-65
2022/08/15 06:27:37;;;;;;;27.05;25.65;;;;;;;;;;5034843;28;20060;-62
2022/08/15 06:30:12;;;;;;;31.77;30.08;;;;;;;;;;5033440;28;20037;-64
2022/08/15 06:32:40;;;;;;;27.45;25.92;;;;;;;;;;5033398;28;20037;-65
2022/08/15 06:35:18;;;;;;;30.23;28.25;;;;;;;;;;5038781;28;20094;-65
2022/08/15 06:38:29;;;;;;;22.25;21.05;;;;;;;;;;5032969;28;20033;-65
2022/08/15 06:41:01;;;;;;;28.75;27.08;;;;;;;;;;5032258;28;20057;-62
2022/08/15 06:43:27;;;;;;;25.75;24.35;;;;;;;;;;5031997;28;20518;-63
2022/08/15 06:45:55;;;;;;;26.30;24.90;;;;;;;;;;5037608;28;20029;-63
2022/08/15 06:48:24;;;;;;;22.67;21.48;;;;;;;;;;5037741;28;20434;-63
2022/08/15 06:50:53;;;;;;;20.83;19.73;;;;;;;;;;5032356;28;20045;-62
2022/08/15 06:53:26;;;;;;;32.30;30.60;;;;;;;;;;5039518;28;20115;-63
2022/08/15 06:55:55;;;;;;;22.27;21.08;;;;;;;;;;5036316;28;20036;-62
2022/08/15 06:58:49;;;;;;;24.63;23.33;;;;;;;;;;5033803;28;20056;-63
2022/08/15 07:01:28;;;;;;;27.88;26.38;;;;;;;;;;5037528;28;20025;-64
2022/08/15 07:04:05;;;;;;;16.15;15.15;;;;;;;;;;5038288;28;20037;-63
2022/08/15 07:06:39;;;;;;;14.60;13.73;;;;;;;;;;5037809;28;20040;-63
2022/08/15 07:09:20;;;;;;;13.65;12.85;;;;;;;;;;5038453;28;20037;-62
2022/08/15 07:11:54;;;;;;;11.55;10.85;;;;;;;;;;5038857;28;20041;-62
2022/08/15 07:14:43;;;;;;;13.10;12.30;;;;;;;;;;5039785;28;20033;-63
2022/08/15 07:17:17;;;;;;;11.68;10.98;;;;;;;;;;5041263;28;20029;-63
2022/08/15 07:19:42;;;;;;;11.43;10.73;;;;;;;;;;5042921;28;20033;-63
2022/08/15 07:22:09;;;;;;;11.57;10.77;;;;;;;;;;5038990;28;20021;-63
2022/08/15 07:24:35;;;;;;;13.40;12.60;;;;;;;;;;5039658;28;20064;-62
2022/08/15 07:27:03;;;;;;;11.52;10.82;;;;;;;;;;5042800;28;20032;-62
2022/08/15 07:29:38;;;;;;;11.15;10.45;;;;;;;;;;5040900;28;20093;-61
2022/08/15 07:32:14;;;;;;;12.27;11.32;;;;;;;;;;5040220;28;20041;-59
2022/08/15 07:35:24;;;;;;;11.85;11.15;;;;;;;;;;5040917;28;20029;-59
2022/08/15 07:37:56;;;;;;;11.57;10.87;;;;;;;;;;4971025;28;20050;-60
2022/08/15 07:40:30;;;;;;;11.38;10.68;;;;;;;;;;4974101;28;20333;-61
2022/08/15 07:42:57;;;;;;;10.93;9.85;;;;;;;;;;5008334;28;20361;-61
2022/08/15 07:45:38;;;;;;;11.57;10.88;;;;;;;;;;5035401;28;20727;-61
2022/08/15 07:48:05;;;;;;;13.10;12.30;;;;;;;;;;5038490;28;20450;-61
2022/08/15 07:50:41;;;;;;;15.63;14.73;;;;;;;;;;5036963;28;20071;-61
2022/08/15 07:53:20;;;;;;;13.88;13.07;;;;;;;;;;5037815;28;20374;-61
2022/08/15 07:56:13;;;;;;;19.10;18.08;;;;;;;;;;5041984;28;20037;-60
2022/08/15 07:58:41;;;;;;;22.02;20.83;;;;;;;;;;5039325;28;20521;-62
2022/08/15 08:01:08;;;;;;;25.48;23.52;;;;;;;;;;5036147;28;20044;-61
2022/08/15 08:03:36;;;;;;;20.23;19.13;;;;;;;;;;5036872;28;20475;-61
2022/08/15 08:06:11;;;;;;;19.67;18.58;;;;;;;;;;5033259;28;20055;-61
2022/08/15 08:09:01;;;;;;;16.85;15.75;;;;;;;;;;5036335;28;20036;-60
2022/08/15 08:11:50;;;;;;;19.05;17.85;;;;;;;;;;5039898;28;20101;-62
2022/08/15 08:14:38;;;;;;;16.05;15.15;;;;;;;;;;5041547;28;20028;-61
2022/08/15 08:17:28;;;;;;;15.63;14.73;;;;;;;;;;5037891;28;20036;-59
2022/08/15 08:20:04;;;;;;;16.10;15.20;;;;;;;;;;5041249;28;20025;-61
2022/08/15 08:22:46;;;;;;;15.57;14.68;;;;;;;;;;5034948;28;20146;-59
2022/08/15 08:25:50;;;;;;;14.23;13.40;;;;;;;;;;5038581;28;20136;-62
2022/08/15 08:28:44;;;;;;;12.50;11.80;;;;;;;;;;5037177;28;20025;-63
2022/08/15 08:31:17;;;;;;;16.50;15.60;;;;;;;;;;5037903;28;20033;-60
2022/08/15 08:34:09;;;;;;;11.15;10.45;;;;;;;;;;5038768;28;20454;-61
2022/08/15 08:37:14;;;;;;;11.75;11.05;;;;;;;;;;5042390;28;20055;-62
2022/08/15 08:39:55;;;;;;;9.70;9.10;;;;;;;;;;5036029;28;20025;-61
2022/08/15 08:42:53;;;;;;;8.85;8.25;;;;;;;;;;5038175;28;20407;-62
2022/08/15 08:45:27;;;;;;;9.90;9.30;;;;;;;;;;5040479;28;20470;-62
2022/08/15 08:48:11;;;;;;;9.80;9.20;;;;;;;;;;5040283;28;20064;-60
2022/08/15 08:50:53;;;;;;;9.00;8.40;;;;;;;;;;5037848;28;20064;-62
2022/08/15 08:54:11;;;;;;;10.52;9.75;;;;;;;;;;5036760;28;20089;-63
2022/08/15 08:56:47;;;;;;;10.38;9.77;;;;;;;;;;5024320;28;20045;-60
2022/08/15 08:59:23;;;;;;;12.13;11.43;;;;;;;;;;5034216;28;20037;-61
2022/08/15 09:01:57;;;;;;;12.85;12.05;;;;;;;;;;5035196;28;20037;-62
2022/08/15 09:04:50;;;;;;;13.73;12.93;;;;;;;;;;5038148;28;20518;-62
2022/08/15 09:07:24;;;;;;;8.82;8.25;;;;;;;;;;5037079;28;20048;-62
2022/08/15 09:09:51;;;;;;;12.80;12.00;;;;;;;;;;5037839;28;20022;-60
2022/08/15 09:15:15;;;;;;;10.57;9.85;;;;;;;;;;5040515;28;20044;-62
2022/08/15 09:17:43;;;;;;;9.75;9.15;;;;;;;;;;5039031;28;20133;-62
2022/08/15 09:20:14;;;;;;;9.32;8.63;;;;;;;;;;5037548;28;20064;-61
2022/08/15 09:22:40;;;;;;;9.07;8.48;;;;;;;;;;5034669;28;20037;-62
2022/08/15 09:25:07;;;;;;;10.00;9.18;;;;;;;;;;5036070;28;20043;-62
2022/08/15 09:27:58;;;;;;;10.98;10.30;;;;;;;;;;5033434;28;20398;-62
2022/08/15 09:30:26;;;;;;;9.43;8.82;;;;;;;;;;5035810;28;20021;-62
2022/08/15 09:33:16;;;;;;;10.18;9.57;;;;;;;;;;5036881;28;20132;-62
2022/08/15 09:36:19;;;;;;;9.23;8.63;;;;;;;;;;5037208;28;20466;-60
2022/08/15 09:38:57;;;;;;;10.80;10.10;;;;;;;;;;5037647;28;20042;-62
2022/08/15 09:41:47;;;;;;;11.45;10.75;;;;;;;;;;5035018;28;20072;-61
2022/08/15 09:44:26;;;;;;;11.40;10.70;;;;;;;;;;5034801;28;20036;-61
2022/08/15 09:47:01;;;;;;;13.77;12.88;;;;;;;;;;5044901;28;20040;-62
2022/08/15 09:49:48;;;;;;;12.25;11.55;;;;;;;;;;5034054;28;20022;-62
2022/08/15 09:52:26;;;;;;;10.77;10.18;;;;;;;;;;5038449;28;20041;-62
2022/08/15 09:54:56;;;;;;;12.07;11.38;;;;;;;;;;5036499;28;20028;-62
2022/08/15 09:57:28;;;;;;;15.25;14.30;;;;;;;;;;5037711;28;20032;-62
2022/08/15 10:00:03;;;;;;;11.95;11.25;;;;;;;;;;5034037;28;20104;-62
2022/08/15 10:02:32;;;;;;;11.65;10.95;;;;;;;;;;5039169;28;20017;-62
2022/08/15 10:04:57;;;;;;;17.60;16.60;;;;;;;;;;5042989;28;20665;-60
2022/08/15 10:07:40;;;;;;;15.55;14.65;;;;;;;;;;5034805;28;20163;-60
2022/08/15 10:10:20;;;;;;;17.25;16.25;;;;;;;;;;5035551;28;20064;-60
2022/08/15 10:13:04;;;;;;;14.55;13.65;;;;;;;;;;5035527;28;20037;-61
2022/08/15 10:15:43;;;;;;;21.58;20.33;;;;;;;;;;5037954;28;20092;-62
2022/08/15 10:18:38;;;;;;;21.80;20.60;;;;;;;;;;5033364;28;20075;-61
2022/08/15 10:21:19;;;;;;;17.50;16.50;;;;;;;;;;5002297;28;20069;-62
2022/08/15 10:23:51;;;;;;;19.33;18.25;;;;;;;;;;5033587;28;20052;-62
2022/08/15 10:26:24;;;;;;;19.35;18.25;;;;;;;;;;5035971;28;20029;-61
2022/08/15 10:29:12;;;;;;;21.30;20.13;;;;;;;;;;5039940;28;20577;-61
2022/08/15 10:31:49;;;;;;;19.75;18.65;;;;;;;;;;5037236;28;20189;-61
2022/08/15 10:34:40;;;;;;;21.50;20.33;;;;;;;;;;5033446;28;20038;-62
2022/08/15 10:37:22;;;;;;;23.10;21.80;;;;;;;;;;5033415;28;20702;-61
2022/08/15 10:40:01;;;;;;;23.65;22.38;;;;;;;;;;5037066;28;20044;-62
2022/08/15 10:42:48;;;;;;;22.05;20.83;;;;;;;;;;5037153;28;20036;-61
2022/08/15 10:45:36;;;;;;;23.58;22.27;;;;;;;;;;5034559;28;20032;-61
2022/08/15 10:48:24;;;;;;;21.60;20.42;;;;;;;;;;5037083;28;20055;-61
2022/08/15 10:50:57;;;;;;;28.43;26.93;;;;;;;;;;5033576;28;20045;-61
2022/08/15 10:53:58;;;;;;;27.50;26.00;;;;;;;;;;5033922;28;20045;-62
2022/08/15 10:56:30;;;;;;;26.60;25.10;;;;;;;;;;4988970;28;20370;-61
2022/08/15 10:59:06;;;;;;;26.55;25.15;;;;;;;;;;5032283;28;20040;-61
2022/08/15 11:01:33;;;;;;;36.85;34.92;;;;;;;;;;5035146;28;20045;-61
2022/08/15 11:04:08;;;;;;;32.17;30.52;;;;;;;;;;5036350;28;20037;-62
2022/08/15 11:06:45;;;;;;;27.75;26.23;;;;;;;;;;5034160;28;20044;-61
2022/08/15 11:09:15;;;;;;;32.80;31.05;;;;;;;;;;5035029;28;20048;-60
2022/08/15 11:11:53;;;;;;;30.70;29.10;;;;;;;;;;5034745;28;20039;-62
2022/08/15 11:14:28;;;;;;;31.02;29.42;;;;;;;;;;5036952;28;20067;-59
2022/08/15 11:16:54;;;;;;;24.95;23.65;;;;;;;;;;5036821;28;20127;-61
2022/08/15 11:19:25;;;;;;;32.15;30.50;;;;;;;;;;5036131;28;20052;-61
2022/08/15 11:22:04;;;;;;;56.58;53.75;;;;;;;;;;5035559;28;20033;-61
2022/08/15 11:24:40;;;;;;;63.33;60.15;;;;;;;;;;5035675;28;20025;-63
2022/08/15 11:27:24;;;;;;;38.75;36.75;;;;;;;;;;5038121;28;20029;-62
2022/08/15 11:29:52;;;;;;;82.88;78.78;;;;;;;;;;5037495;28;20063;-60
2022/08/15 11:32:26;;;;;;;71.82;68.18;;;;;;;;;;5035389;28;20378;-60
2022/08/15 11:34:53;;;;;;;90.20;85.78;;;;;;;;;;5036278;28;20057;-61
2022/08/15 11:37:21;;;;;;;79.80;75.88;;;;;;;;;;5033341;28;20025;-60
2022/08/15 11:39:58;;;;;;;86.13;81.82;;;;;;;;;;5035172;28;20036;-61
2022/08/15 11:42:25;;;;;;;79.57;75.55;;;;;;;;;;5032632;28;20029;-60
2022/08/15 11:45:07;;;;;;;76.60;72.72;;;;;;;;;;5034133;28;20037;-58
2022/08/15 11:47:35;;;;;;;82.70;78.60;;;;;;;;;;5033130;28;20029;-60
2022/08/15 11:50:06;;;;;;;79.05;75.15;;;;;;;;;;5037469;28;20545;-60
2022/08/15 11:52:36;;;;;;;65.80;62.55;;;;;;;;;;5037607;28;20063;-63
2022/08/15 11:55:31;;;;;;;33.17;31.48;;;;;;;;;;5038464;28;20029;-62
2022/08/15 11:58:10;;;;;;;29.23;27.73;;;;;;;;;;5009255;28;20041;-61
2022/08/15 12:00:43;;;;;;;26.08;24.67;;;;;;;;;;5038828;28;20128;-60
2022/08/15 12:03:23;;;;;;;29.27;27.77;;;;;;;;;;5038122;28;20033;-60
2022/08/15 12:05:52;;;;;;;33.25;31.55;;;;;;;;;;5037759;28;20028;-60
2022/08/15 12:08:29;;;;;;;44.55;42.25;;;;;;;;;;5038756;28;20044;-61
2022/08/15 12:11:24;;;;;;;40.65;38.55;;;;;;;;;;5037367;28;20480;-62
2022/08/15 12:13:55;;;;;;;31.65;29.95;;;;;;;;;;5039311;28;20121;-62
2022/08/15 12:16:31;;;;;;;28.90;27.40;;;;;;;;;;5037899;28;20034;-62
2022/08/15 12:18:57;;;;;;;25.90;24.50;;;;;;;;;;5039404;28;20033;-62
2022/08/15 12:21:23;;;;;;;21.83;20.63;;;;;;;;;;5039645;28;20511;-61
2022/08/15 12:23:58;;;;;;;17.38;16.38;;;;;;;;;;5035777;28;20124;-60
2022/08/15 12:26:26;;;;;;;14.68;13.57;;;;;;;;;;5038902;28;20781;-61
2022/08/15 12:28:55;;;;;;;13.45;12.65;;;;;;;;;;5036591;28;20037;-63
2022/08/15 12:31:27;;;;;;;10.27;9.68;;;;;;;;;;5037915;28;20036;-63
2022/08/15 12:34:07;;;;;;;11.10;10.40;;;;;;;;;;5038971;28;20040;-64
2022/08/15 12:36:32;;;;;;;9.95;9.35;;;;;;;;;;5040407;28;20507;-64
2022/08/15 12:38:57;;;;;;;10.52;9.82;;;;;;;;;;5038015;28;20048;-62
2022/08/15 12:41:25;;;;;;;10.02;9.43;;;;;;;;;;5036223;28;20064;-63
2022/08/15 12:43:51;;;;;;;10.38;9.77;;;;;;;;;;5038775;28;20021;-62
2022/08/15 12:46:18;;;;;;;11.02;10.25;;;;;;;;;;5035509;28;20033;-62
2022/08/15 12:48:46;;;;;;;10.38;9.77;;;;;;;;;;5038803;28;20048;-64
2022/08/15 12:51:12;;;;;;;9.25;8.65;;;;;;;;;;5037824;28;20618;-62
2022/08/15 12:53:38;;;;;;;10.35;9.75;;;;;;;;;;5034961;28;20562;-62
2022/08/15 12:56:07;;;;;;;13.00;12.10;;;;;;;;;;5035172;28;20103;-63
2022/08/15 12:58:33;;;;;;;12.48;11.77;;;;;;;;;;5035104;28;20108;-62
2022/08/15 13:01:00;;;;;;;16.70;15.75;;;;;;;;;;5037125;28;20056;-62
2022/08/15 13:03:28;;;;;;;16.40;15.50;;;;;;;;;;5035707;28;20095;-62
2022/08/15 13:06:14;;;;;;;17.33;16.33;;;;;;;;;;5035764;28;20622;-60
2022/08/15 13:08:41;;;;;;;13.32;12.43;;;;;;;;;;5038495;28;20033;-62
2022/08/15 13:11:08;;;;;;;11.77;11.07;;;;;;;;;;5040192;28;20033;-62
2022/08/15 13:13:33;;;;;;;11.77;11.07;;;;;;;;;;5033432;28;20612;-61
2022/08/15 13:15:59;;;;;;;10.38;9.77;;;;;;;;;;5036338;28;20120;-61
2022/08/15 13:18:26;;;;;;;10.10;9.50;;;;;;;;;;5039174;28;20100;-61
2022/08/15 13:23:40;;;;;;;9.18;8.57;;;;;;;;;;5038685;28;20040;-62
2022/08/15 13:26:12;;;;;;;9.15;8.55;;;;;;;;;;5038157;28;20141;-61
2022/08/15 13:28:41;;;;;;;10.55;9.85;;;;;;;;;;5031753;28;20439;-61
2022/08/15 13:31:07;;;;;;;10.75;10.10;;;;;;;;;;5031974;28;20045;-60
2022/08/15 13:33:34;;;;;;;10.38;9.68;;;;;;;;;;5032045;28;20662;-61
2022/08/15 13:36:01;;;;;;;12.18;11.48;;;;;;;;;;5035625;28;20037;-61
2022/08/15 13:38:28;;;;;;;13.40;12.60;;;;;;;;;;5039101;28;20059;-61
2022/08/15 13:40:53;;;;;;;14.90;14.07;;;;;;;;;;5038816;28;20092;-61
2022/08/15 13:43:20;;;;;;;15.10;14.23;;;;;;;;;;5038840;28;20654;-61
2022/08/15 13:45:47;;;;;;;16.95;16.05;;;;;;;;;;5043530;28;20057;-61
2022/08/15 13:48:23;;;;;;;13.88;13.07;;;;;;;;;;5035529;28;20025;-61
2022/08/15 13:50:49;;;;;;;17.50;16.50;;;;;;;;;;5037346;28;20045;-61
2022/08/15 13:53:14;;;;;;;15.65;14.75;;;;;;;;;;5034212;28;20041;-61
2022/08/15 13:55:40;;;;;;;22.88;21.63;;;;;;;;;;5036493;28;20025;-62
2022/08/15 13:58:06;;;;;;;18.90;17.80;;;;;;;;;;5032482;28;20037;-61
2022/08/15 14:00:32;;;;;;;21.10;20.00;;;;;;;;;;5035315;28;20033;-61
2022/08/15 14:03:00;;;;;;;23.58;22.27;;;;;;;;;;5037712;28;20028;-61
2022/08/15 14:05:26;;;;;;;26.67;25.27;;;;;;;;;;5033905;28;20048;-61
2022/08/15 14:07:52;;;;;;;28.13;26.63;;;;;;;;;;5034696;28;20029;-61
2022/08/15 14:10:21;;;;;;;21.83;20.63;;;;;;;;;;5033521;28;20033;-61
2022/08/15 14:12:46;;;;;;;25.02;23.73;;;;;;;;;;5035066;28;20685;-61
2022/08/15 14:15:13;;;;;;;22.45;21.25;;;;;;;;;;5031817;28;20214;-61
2022/08/15 14:17:41;;;;;;;22.52;21.33;;;;;;;;;;5035337;28;20033;-62
2022/08/15 14:20:09;;;;;;;21.38;20.23;;;;;;;;;;5036498;28;20025;-62
2022/08/15 14:22:35;;;;;;;28.80;27.30;;;;;;;;;;5035614;28;20044;-60
2022/08/15 14:25:01;;;;;;;31.77;30.15;;;;;;;;;;5035613;28;20045;-61
2022/08/15 14:27:26;;;;;;;34.67;32.88;;;;;;;;;;5034075;28;20039;-60
2022/08/15 14:29:52;;;;;;;36.70;34.80;;;;;;;;;;5038033;28;20036;-62
2022/08/15 14:32:19;;;;;;;31.95;30.27;;;;;;;;;;5035386;28;20032;-62
2022/08/15 14:34:45;;;;;;;24.67;23.38;;;;;;;;;;5035937;28;20451;-63
2022/08/15 14:37:15;;;;;;;25.92;24.42;;;;;;;;;;5037793;28;20446;-60
2022/08/15 14:39:40;;;;;;;28.20;26.70;;;;;;;;;;5037438;28;20032;-62
2022/08/15 14:42:06;;;;;;;24.27;22.98;;;;;;;;;;5034639;28;20037;-62
2022/08/15 14:44:35;;;;;;;24.25;22.95;;;;;;;;;;5035976;28;20459;-63
2022/08/15 14:47:02;;;;;;;47.10;44.70;;;;;;;;;;5037753;28;20037;-61
2022/08/15 14:49:28;;;;;;;47.75;45.35;;;;;;;;;;5035286;28;20121;-62
2022/08/15 14:51:54;;;;;;;37.50;35.30;;;;;;;;;;5034667;28;20029;-62
2022/08/15 14:54:21;;;;;;;46.92;44.58;;;;;;;;;;5036492;28;20057;-62